createdAt,value
2019-04-01T00:00:43.440Z,7.59
2019-04-01T00:03:11.958Z,7.59
2019-04-01T00:05:40.728Z,7.85
2019-04-01T00:08:09.290Z,7.76
2019-04-01T00:10:37.709Z,7.44
2019-04-01T00:13:06.320Z,7.42
2019-04-01T00:15:34.805Z,7.44
2019-04-01T00:18:03.309Z,7.38
2019-04-01T00:20:31.821Z,7.40
2019-04-01T00:23:00.428Z,7.47
2019-04-01T00:25:29.045Z,7.58
2019-04-01T00:27:57.763Z,7.42
2019-04-01T00:30:26.173Z,7.21
2019-04-01T00:32:54.644Z,7.22
2019-04-01T00:35:23.198Z,7.26
2019-04-01T00:37:51.613Z,7.14
2019-04-01T00:40:20.133Z,7.09
2019-04-01T00:42:53.285Z,7.12
2019-04-01T00:45:23.464Z,7.30
2019-04-01T00:47:51.906Z,7.31
2019-04-01T00:50:20.415Z,7.35
2019-04-01T00:52:48.934Z,7.25
2019-04-01T00:55:17.356Z,7.26
2019-04-01T00:57:45.788Z,7.26
2019-04-01T01:00:17.153Z,7.05
2019-04-01T01:02:45.660Z,7.14
2019-04-01T01:05:14.168Z,7.16
2019-04-01T01:07:42.669Z,7.08
2019-04-01T01:10:11.431Z,7.01
2019-04-01T01:12:39.916Z,6.90
2019-04-01T01:15:08.775Z,7.08
2019-04-01T01:17:37.276Z,6.96
2019-04-01T01:20:06.853Z,6.83
2019-04-01T01:22:35.516Z,6.94
2019-04-01T01:25:04.603Z,6.81
2019-04-01T01:27:33.039Z,6.76
2019-04-01T01:30:01.506Z,6.61
2019-04-01T01:32:29.913Z,6.67
2019-04-01T01:34:58.362Z,6.56
2019-04-01T01:37:28.665Z,6.63
2019-04-01T01:39:57.706Z,6.49
2019-04-01T01:42:26.117Z,6.44
2019-04-01T01:44:54.553Z,6.52
2019-04-01T01:47:22.997Z,6.48
2019-04-01T01:49:51.433Z,6.42
2019-04-01T01:52:19.959Z,6.33
2019-04-01T01:54:48.392Z,6.35
2019-04-01T01:57:16.810Z,6.35
2019-04-01T01:59:45.352Z,6.49
2019-04-01T02:02:13.845Z,6.43
2019-04-01T02:04:42.274Z,6.29
2019-04-01T02:07:10.801Z,6.50
2019-04-01T02:09:39.222Z,6.37
2019-04-01T02:12:07.670Z,6.30
2019-04-01T02:14:36.090Z,6.27
2019-04-01T02:17:04.615Z,6.31
2019-04-01T02:19:33.156Z,6.27
2019-04-01T02:22:01.581Z,6.28
2019-04-01T02:24:30.036Z,6.44
2019-04-01T02:26:58.452Z,6.29
2019-04-01T02:29:26.896Z,6.29
2019-04-01T02:31:55.315Z,6.15
2019-04-01T02:34:23.772Z,6.23
2019-04-01T02:36:52.254Z,6.26
2019-04-01T02:39:20.696Z,6.15
2019-04-01T02:41:49.136Z,6.27
2019-04-01T02:44:17.575Z,6.04
2019-04-01T02:46:46.038Z,6.08
2019-04-01T02:49:14.467Z,6.00
2019-04-01T02:51:42.894Z,6.12
2019-04-01T02:54:11.343Z,5.98
2019-04-01T02:56:39.779Z,5.95
2019-04-01T02:59:08.306Z,5.84
2019-04-01T03:01:36.796Z,5.73
2019-04-01T03:04:05.236Z,5.75
2019-04-01T03:06:33.699Z,5.71
2019-04-01T03:09:02.096Z,5.75
2019-04-01T03:11:30.667Z,5.63
2019-04-01T03:13:59.112Z,5.65
2019-04-01T03:16:27.573Z,5.62
2019-04-01T03:18:56.054Z,5.52
2019-04-01T03:21:24.585Z,5.63
2019-04-01T03:23:53.140Z,5.43
2019-04-01T03:26:21.657Z,5.43
2019-04-01T03:28:50.092Z,5.45
2019-04-01T03:31:18.651Z,5.37
2019-04-01T03:33:47.130Z,5.42
2019-04-01T03:36:15.575Z,5.50
2019-04-01T03:38:44.020Z,5.51
2019-04-01T03:41:12.492Z,5.32
2019-04-01T03:43:41.098Z,5.17
2019-04-01T03:46:09.509Z,5.24
2019-04-01T03:48:37.965Z,5.29
2019-04-01T03:51:06.411Z,5.21
2019-04-01T03:53:34.858Z,5.16
2019-04-01T03:56:03.618Z,5.07
2019-04-01T03:58:32.358Z,4.93
2019-04-01T04:01:00.780Z,4.89
2019-04-01T04:03:29.272Z,4.96
2019-04-01T04:05:57.802Z,4.93
2019-04-01T04:08:26.221Z,4.83
2019-04-01T04:10:54.713Z,4.91
2019-04-01T04:13:23.183Z,4.82
2019-04-01T04:15:51.809Z,4.91
2019-04-01T04:18:20.328Z,4.92
2019-04-01T04:20:48.773Z,4.90
2019-04-01T04:23:17.197Z,4.66
2019-04-01T04:25:47.268Z,4.73
2019-04-01T04:28:15.789Z,4.83
2019-04-01T04:30:44.235Z,4.71
2019-04-01T04:33:12.809Z,4.75
2019-04-01T04:35:41.301Z,4.66
2019-04-01T04:38:10.097Z,4.62
2019-04-01T04:40:40.899Z,4.81
2019-04-01T04:43:08.735Z,4.69
2019-04-01T04:45:37.329Z,4.72
2019-04-01T04:48:05.756Z,4.74
2019-04-01T04:50:34.442Z,4.65
2019-04-01T04:53:02.881Z,4.64
2019-04-01T04:55:31.319Z,4.56
2019-04-01T04:57:59.778Z,4.50
2019-04-01T05:00:28.203Z,4.53
2019-04-01T05:02:56.614Z,4.41
2019-04-01T05:05:25.200Z,4.47
2019-04-01T05:07:53.758Z,4.32
2019-04-01T05:10:22.292Z,4.27
2019-04-01T05:12:51.733Z,4.39
2019-04-01T05:15:20.304Z,4.42
2019-04-01T05:17:48.724Z,4.45
2019-04-01T05:20:17.264Z,4.52
2019-04-01T05:22:46.522Z,4.39
2019-04-01T05:25:15.029Z,4.51
2019-04-01T05:27:45.059Z,4.41
2019-04-01T05:30:13.719Z,4.49
2019-04-01T05:32:43.063Z,4.53
2019-04-01T05:35:11.652Z,4.55
2019-04-01T05:37:40.355Z,4.44
2019-04-01T05:40:09.550Z,4.54
2019-04-01T05:42:37.965Z,4.48
2019-04-01T05:45:07.675Z,4.63
2019-04-01T05:47:38.205Z,4.66
2019-04-01T05:50:07.076Z,4.84
2019-04-01T05:52:35.655Z,4.69
2019-04-01T05:55:08.738Z,4.79
2019-04-01T05:57:36.123Z,4.88
2019-04-01T06:00:06.400Z,5.15
2019-04-01T06:02:35.009Z,5.09
2019-04-01T06:05:04.568Z,5.12
2019-04-01T06:07:33.129Z,5.14
2019-04-01T06:10:01.932Z,5.26
2019-04-01T06:12:30.431Z,5.11
2019-04-01T06:14:58.990Z,5.17
2019-04-01T06:17:27.596Z,5.39
2019-04-01T06:19:56.092Z,5.38
2019-04-01T06:22:24.668Z,5.60
2019-04-01T06:24:53.400Z,5.28
2019-04-01T06:27:23.267Z,5.44
2019-04-01T06:29:55.207Z,5.43
2019-04-01T06:32:24.147Z,5.48
2019-04-01T06:34:53.271Z,5.68
2019-04-01T06:37:21.703Z,5.78
2019-04-01T06:39:50.152Z,5.69
2019-04-01T06:42:19.574Z,5.94
2019-04-01T06:44:48.157Z,6.15
2019-04-01T06:47:16.582Z,6.26
2019-04-01T06:49:45.067Z,6.29
2019-04-01T06:52:13.678Z,6.12
2019-04-01T06:54:42.279Z,6.00
2019-04-01T06:57:10.796Z,5.75
2019-04-01T06:59:39.388Z,5.75
2019-04-01T07:02:07.880Z,5.91
2019-04-01T07:04:36.394Z,6.01
2019-04-01T07:07:18.379Z,6.18
2019-04-01T07:09:35.298Z,6.20
2019-04-01T07:12:03.862Z,6.02
2019-04-01T07:14:32.400Z,6.24
2019-04-01T07:17:00.982Z,6.59
2019-04-01T07:19:29.472Z,6.91
2019-04-01T07:21:58.375Z,7.03
2019-04-01T07:24:26.866Z,7.49
2019-04-01T07:26:56.323Z,7.88
2019-04-01T07:29:25.120Z,8.38
2019-04-01T07:31:53.545Z,9.01
2019-04-01T07:34:22.069Z,8.92
2019-04-01T07:36:50.638Z,9.13
2019-04-01T07:39:19.213Z,9.50
2019-04-01T07:41:47.812Z,9.93
2019-04-01T07:44:16.365Z,10.44
2019-04-01T07:46:44.817Z,10.70
2019-04-01T07:49:13.393Z,10.87
2019-04-01T07:51:42.587Z,11.49
2019-04-01T07:54:11.137Z,11.71
2019-04-01T07:56:40.129Z,11.85
2019-04-01T07:59:08.690Z,11.70
2019-04-01T08:01:37.289Z,12.01
2019-04-01T08:04:05.853Z,12.69
2019-04-01T08:06:34.548Z,12.26
2019-04-01T08:09:04.915Z,12.83
2019-04-01T08:11:33.520Z,13.30
2019-04-01T08:14:02.985Z,13.77
2019-04-01T08:16:31.563Z,13.74
2019-04-01T08:19:00.058Z,13.92
2019-04-01T08:21:28.855Z,14.15
2019-04-01T08:23:57.269Z,15.14
2019-04-01T08:26:25.715Z,14.89
2019-04-01T08:28:54.143Z,14.59
2019-04-01T08:31:22.678Z,15.28
2019-04-01T08:33:51.260Z,15.03
2019-04-01T08:36:19.848Z,15.87
2019-04-01T08:38:48.383Z,16.42
2019-04-01T08:41:20.037Z,15.98
2019-04-01T08:43:48.776Z,16.36
2019-04-01T08:46:17.366Z,16.62
2019-04-01T08:48:46.087Z,16.37
2019-04-01T08:51:15.127Z,16.06
2019-04-01T08:53:43.651Z,16.74
2019-04-01T08:56:12.142Z,18.07
2019-04-01T08:58:41.335Z,17.56
2019-04-01T09:01:09.830Z,18.17
2019-04-01T09:03:38.608Z,18.39
2019-04-01T09:06:07.407Z,18.29
2019-04-01T09:08:37.024Z,18.32
2019-04-01T09:11:05.521Z,18.58
2019-04-01T09:13:34.118Z,18.85
2019-04-01T09:16:03.381Z,19.24
2019-04-01T09:18:31.854Z,19.12
2019-04-01T09:21:00.372Z,19.43
2019-04-01T09:23:28.869Z,19.56
2019-04-01T09:25:57.331Z,18.95
2019-04-01T09:28:25.786Z,19.40
2019-04-01T09:30:54.286Z,19.86
2019-04-01T09:33:22.871Z,19.17
2019-04-01T09:35:51.608Z,19.29
2019-04-01T09:38:20.039Z,19.96
2019-04-01T09:40:48.531Z,20.79
2019-04-01T09:43:17.073Z,20.51
2019-04-01T09:45:45.592Z,20.69
2019-04-01T09:48:14.018Z,20.32
2019-04-01T09:50:42.552Z,20.93
2019-04-01T09:53:11.071Z,19.80
2019-04-01T09:55:39.553Z,20.28
2019-04-01T09:58:08.021Z,19.18
2019-04-01T10:00:36.526Z,20.18
2019-04-01T10:03:05.033Z,20.22
2019-04-01T10:05:33.501Z,19.60
2019-04-01T10:08:02.028Z,20.09
2019-04-01T10:10:30.623Z,20.45
2019-04-01T10:12:59.073Z,19.66
2019-04-01T10:15:27.541Z,20.68
2019-04-01T10:17:56.133Z,21.08
2019-04-01T10:20:24.653Z,20.97
2019-04-01T10:22:53.276Z,21.18
2019-04-01T10:25:21.771Z,20.48
2019-04-01T10:27:50.481Z,20.96
2019-04-01T10:30:20.600Z,20.48
2019-04-01T10:32:49.140Z,21.05
2019-04-01T10:35:17.749Z,19.53
2019-04-01T10:37:46.244Z,19.19
2019-04-01T10:40:15.042Z,20.23
2019-04-01T10:42:43.531Z,20.58
2019-04-01T10:45:12.635Z,20.93
2019-04-01T10:47:41.314Z,20.96
2019-04-01T10:50:10.482Z,21.13
2019-04-01T10:52:43.899Z,21.41
2019-04-01T10:55:10.881Z,21.65
2019-04-01T10:57:41.788Z,21.95
2019-04-01T11:00:10.433Z,20.83
2019-04-01T11:02:38.890Z,21.52
2019-04-01T11:05:08.667Z,20.56
2019-04-01T11:07:37.222Z,21.53
2019-04-01T11:10:11.784Z,21.94
2019-04-01T11:12:39.652Z,21.08
2019-04-01T11:15:08.783Z,20.18
2019-04-01T11:17:37.212Z,19.67
2019-04-01T11:20:09.312Z,19.23
2019-04-01T11:22:37.809Z,18.70
2019-04-01T11:25:07.819Z,19.25
2019-04-01T11:27:36.384Z,19.07
2019-04-01T11:30:07.776Z,18.53
2019-04-01T11:32:36.806Z,18.44
2019-04-01T11:35:07.089Z,18.54
2019-04-01T11:37:35.653Z,18.22
2019-04-01T11:40:10.214Z,18.02
2019-04-01T11:42:40.282Z,17.20
2019-04-01T11:45:09.989Z,17.80
2019-04-01T11:47:38.534Z,17.56
2019-04-01T11:50:07.712Z,17.73
2019-04-01T11:52:36.242Z,18.18
2019-04-01T11:55:06.720Z,17.73
2019-04-01T11:57:35.455Z,17.66
2019-04-01T12:00:05.496Z,17.28
2019-04-01T12:02:34.004Z,16.84
2019-04-01T12:05:02.459Z,17.39
2019-04-01T12:07:30.989Z,17.48
2019-04-01T12:09:59.458Z,17.04
2019-04-01T12:12:27.921Z,17.25
2019-04-01T12:14:56.946Z,16.97
2019-04-01T12:17:25.530Z,17.07
2019-04-01T12:19:54.140Z,16.32
2019-04-01T12:22:22.636Z,16.82
2019-04-01T12:24:51.312Z,16.71
2019-04-01T12:27:19.733Z,16.78
2019-04-01T12:29:48.497Z,16.01
2019-04-01T12:32:16.967Z,16.56
2019-04-01T12:34:46.668Z,16.42
2019-04-01T12:37:15.378Z,16.93
2019-04-01T12:39:43.819Z,16.00
2019-04-01T12:42:12.902Z,16.43
2019-04-01T12:44:41.582Z,16.32
2019-04-01T12:47:10.253Z,16.15
2019-04-01T12:49:38.700Z,16.66
2019-04-01T12:52:07.610Z,16.80
2019-04-01T12:54:36.139Z,16.87
2019-04-01T12:57:04.673Z,16.58
2019-04-01T12:59:33.186Z,16.48
2019-04-01T13:02:01.622Z,16.68
2019-04-01T13:04:30.165Z,16.72
2019-04-01T13:06:58.668Z,16.77
2019-04-01T13:09:27.182Z,16.76
2019-04-01T13:11:55.643Z,16.41
2019-04-01T13:14:24.073Z,16.38
2019-04-01T13:16:52.714Z,16.30
2019-04-01T13:19:21.358Z,16.58
2019-04-01T13:21:49.838Z,16.55
2019-04-01T13:24:18.345Z,16.56
2019-04-01T13:26:50.628Z,16.66
2019-04-01T13:29:17.143Z,16.67
2019-04-01T13:31:45.791Z,16.59
2019-04-01T13:34:14.198Z,16.79
2019-04-01T13:36:42.698Z,17.04
2019-04-01T13:39:11.235Z,16.95
2019-04-01T13:41:42.574Z,17.00
2019-04-01T13:44:09.813Z,17.03
2019-04-01T13:46:38.344Z,16.63
2019-04-01T13:49:06.843Z,16.94
2019-04-01T13:51:35.404Z,16.79
2019-04-01T13:54:08.855Z,16.73
2019-04-01T13:56:34.160Z,16.48
2019-04-01T13:59:02.693Z,16.96
2019-04-01T14:01:31.323Z,16.90
2019-04-01T14:03:59.847Z,16.62
2019-04-01T14:06:28.287Z,17.05
2019-04-01T14:09:00.324Z,16.69
2019-04-01T14:11:26.955Z,16.87
2019-04-01T14:13:55.395Z,16.64
2019-04-01T14:16:23.919Z,16.86
2019-04-01T14:18:52.434Z,16.86
2019-04-01T14:21:21.151Z,16.83
2019-04-01T14:23:49.632Z,16.56
2019-04-01T14:26:18.070Z,16.31
2019-04-01T14:28:46.550Z,16.36
2019-04-01T14:31:15.057Z,16.46
2019-04-01T14:33:43.510Z,16.47
2019-04-01T14:36:11.955Z,16.77
2019-04-01T14:38:40.422Z,16.88
2019-04-01T14:41:09.051Z,17.07
2019-04-01T14:43:37.479Z,17.07
2019-04-01T14:46:06.035Z,17.04
2019-04-01T14:48:34.712Z,16.66
2019-04-01T14:51:03.194Z,16.04
2019-04-01T14:53:31.990Z,16.52
2019-04-01T14:56:00.426Z,16.48
2019-04-01T14:58:28.869Z,16.46
2019-04-01T15:00:57.481Z,16.39
2019-04-01T15:03:25.982Z,16.53
2019-04-01T15:05:54.403Z,16.03
2019-04-01T15:08:22.876Z,16.27
2019-04-01T15:10:51.386Z,16.15
2019-04-01T15:13:19.864Z,16.38
2019-04-01T15:15:48.321Z,16.26
2019-04-01T15:18:16.814Z,16.08
2019-04-01T15:20:45.313Z,16.30
2019-04-01T15:23:13.855Z,16.02
2019-04-01T15:25:42.397Z,15.86
2019-04-01T15:28:10.867Z,15.81
2019-04-01T15:30:39.302Z,15.84
2019-04-01T15:33:07.849Z,15.86
2019-04-01T15:35:36.367Z,16.10
2019-04-01T15:38:04.889Z,16.18
2019-04-01T15:40:33.602Z,15.60
2019-04-01T15:43:02.022Z,15.55
2019-04-01T15:45:31.462Z,15.66
2019-04-01T15:48:00.171Z,15.54
2019-04-01T15:50:29.248Z,15.76
2019-04-01T15:52:58.574Z,15.52
2019-04-01T15:55:27.144Z,15.71
2019-04-01T15:57:55.610Z,15.86
2019-04-01T16:00:24.299Z,15.44
2019-04-01T16:02:52.849Z,15.38
2019-04-01T16:05:21.310Z,15.22
2019-04-01T16:07:49.744Z,15.28
2019-04-01T16:10:18.356Z,15.26
2019-04-01T16:12:46.786Z,15.22
2019-04-01T16:15:15.415Z,15.23
2019-04-01T16:17:43.893Z,14.99
2019-04-01T16:20:12.865Z,15.18
2019-04-01T16:22:43.710Z,14.95
2019-04-01T16:25:13.207Z,14.84
2019-04-01T16:27:43.119Z,14.69
2019-04-01T16:30:11.956Z,14.62
2019-04-01T16:32:42.558Z,14.68
2019-04-01T16:35:11.132Z,14.58
2019-04-01T16:37:39.590Z,14.41
2019-04-01T16:40:08.610Z,14.42
2019-04-01T16:42:37.414Z,14.53
2019-04-01T16:45:07.883Z,14.42
2019-04-01T16:47:36.450Z,14.50
2019-04-01T16:50:07.215Z,14.28
2019-04-01T16:52:35.783Z,14.30
2019-04-01T16:55:07.255Z,14.37
2019-04-01T16:57:35.936Z,14.16
2019-04-01T17:00:09.595Z,14.26
2019-04-01T17:02:38.178Z,14.00
2019-04-01T17:05:07.457Z,14.03
2019-04-01T17:07:35.987Z,13.82
2019-04-01T17:10:05.467Z,13.97
2019-04-01T17:12:34.031Z,14.03
2019-04-01T17:15:03.714Z,14.07
2019-04-01T17:17:32.423Z,13.78
2019-04-01T17:20:01.045Z,13.72
2019-04-01T17:22:29.556Z,13.76
2019-04-01T17:24:57.996Z,13.43
2019-04-01T17:27:26.627Z,13.46
2019-04-01T17:29:58.063Z,13.41
2019-04-01T17:32:26.514Z,13.41
2019-04-01T17:34:55.029Z,13.28
2019-04-01T17:37:23.482Z,13.13
2019-04-01T17:39:52.018Z,13.00
2019-04-01T17:42:20.637Z,13.15
2019-04-01T17:44:52.119Z,13.04
2019-04-01T17:47:20.649Z,13.28
2019-04-01T17:49:49.207Z,13.00
2019-04-01T17:52:17.760Z,13.04
2019-04-01T17:54:48.017Z,12.96
2019-04-01T17:57:16.536Z,12.79
2019-04-01T17:59:45.045Z,12.81
2019-04-01T18:02:15.280Z,13.37
2019-04-01T18:04:43.833Z,12.71
2019-04-01T18:07:12.365Z,12.39
2019-04-01T18:09:40.948Z,12.33
2019-04-01T18:12:09.453Z,12.42
2019-04-01T18:14:37.958Z,12.18
2019-04-01T18:17:06.427Z,11.91
2019-04-01T18:19:36.086Z,11.93
2019-04-01T18:22:04.834Z,11.89
2019-04-01T18:24:33.370Z,12.03
2019-04-01T18:27:02.041Z,11.93
2019-04-01T18:29:30.609Z,11.79
2019-04-01T18:31:59.234Z,11.86
2019-04-01T18:34:28.055Z,11.67
2019-04-01T18:36:56.951Z,11.83
2019-04-01T18:39:25.440Z,11.64
2019-04-01T18:41:53.959Z,11.47
2019-04-01T18:44:22.965Z,11.34
2019-04-01T18:46:52.241Z,11.44
2019-04-01T18:49:21.422Z,11.54
2019-04-01T18:51:49.873Z,11.37
2019-04-01T18:54:18.359Z,11.07
2019-04-01T18:56:47.845Z,11.19
2019-04-01T18:59:16.403Z,10.86
2019-04-01T19:01:44.885Z,10.83
2019-04-01T19:04:13.535Z,10.86
2019-04-01T19:06:42.113Z,10.89
2019-04-01T19:09:11.797Z,10.80
2019-04-01T19:11:43.301Z,10.88
2019-04-01T19:14:11.291Z,10.74
2019-04-01T19:16:40.081Z,10.85
2019-04-01T19:19:08.687Z,10.70
2019-04-01T19:21:37.462Z,10.73
2019-04-01T19:24:06.894Z,10.77
2019-04-01T19:26:35.543Z,10.69
2019-04-01T19:29:04.155Z,10.71
2019-04-01T19:31:32.637Z,10.74
2019-04-01T19:34:01.270Z,10.78
2019-04-01T19:36:30.141Z,10.69
2019-04-01T19:38:58.706Z,10.70
2019-04-01T19:41:27.203Z,10.67
2019-04-01T19:43:55.686Z,10.67
2019-04-01T19:46:24.228Z,10.73
2019-04-01T19:48:52.692Z,10.71
2019-04-01T19:51:21.181Z,10.56
2019-04-01T19:53:49.631Z,10.69
2019-04-01T19:56:18.195Z,10.68
2019-04-01T19:58:46.727Z,10.61
2019-04-01T20:01:15.247Z,10.56
2019-04-01T20:03:43.732Z,10.57
2019-04-01T20:06:12.236Z,10.56
2019-04-01T20:08:40.708Z,10.65
2019-04-01T20:11:09.515Z,10.53
2019-04-01T20:13:39.125Z,10.59
2019-04-01T20:16:10.201Z,10.50
2019-04-01T20:18:38.426Z,10.55
2019-04-01T20:21:07.048Z,10.52
2019-04-01T20:23:35.574Z,10.44
2019-04-01T20:26:04.417Z,10.55
2019-04-01T20:28:32.993Z,10.39
2019-04-01T20:31:01.435Z,10.38
2019-04-01T20:33:31.826Z,10.33
2019-04-01T20:36:00.437Z,10.28
2019-04-01T20:38:28.948Z,10.23
2019-04-01T20:40:57.473Z,10.27
2019-04-01T20:43:25.904Z,10.25
2019-04-01T20:45:54.430Z,10.19
2019-04-01T20:48:22.907Z,10.18
2019-04-01T20:50:51.480Z,10.21
2019-04-01T20:53:19.934Z,10.21
2019-04-01T20:55:50.579Z,10.17
2019-04-01T20:58:18.831Z,10.06
2019-04-01T21:00:47.325Z,10.14
2019-04-01T21:03:15.830Z,10.03
2019-04-01T21:05:44.395Z,9.87
2019-04-01T21:08:12.894Z,9.85
2019-04-01T21:10:42.342Z,9.75
2019-04-01T21:13:11.214Z,9.77
2019-04-01T21:15:39.667Z,9.78
2019-04-01T21:18:08.141Z,9.76
2019-04-01T21:20:36.914Z,9.83
2019-04-01T21:23:07.039Z,9.92
2019-04-01T21:25:35.643Z,9.91
2019-04-01T21:28:04.242Z,9.84
2019-04-01T21:30:32.760Z,9.88
2019-04-01T21:33:01.213Z,9.92
2019-04-01T21:35:29.674Z,9.90
2019-04-01T21:37:58.110Z,9.92
2019-04-01T21:40:27.938Z,9.91
2019-04-01T21:42:57.016Z,9.86
2019-04-01T21:45:25.561Z,9.92
2019-04-01T21:47:54.095Z,9.80
2019-04-01T21:50:22.654Z,9.86
2019-04-01T21:52:51.222Z,9.83
2019-04-01T21:55:19.684Z,9.81
2019-04-01T21:57:48.184Z,9.75
2019-04-01T22:00:27.659Z,9.78
2019-04-01T22:02:56.084Z,9.82
2019-04-01T22:05:24.753Z,9.82
2019-04-01T22:07:53.264Z,9.85
2019-04-01T22:10:22.060Z,9.80
2019-04-01T22:12:52.565Z,9.78
2019-04-01T22:15:21.160Z,9.80
2019-04-01T22:17:51.001Z,9.75
2019-04-01T22:20:19.523Z,9.73
2019-04-01T22:22:47.959Z,9.76
2019-04-01T22:25:16.405Z,9.57
2019-04-01T22:27:44.831Z,9.69
2019-04-01T22:30:13.620Z,9.64
2019-04-01T22:32:42.166Z,9.78
2019-04-01T22:35:11.154Z,9.73
2019-04-01T22:37:39.565Z,9.64
2019-04-01T22:40:08.232Z,9.47
2019-04-01T22:42:36.678Z,9.42
2019-04-01T22:45:06.815Z,9.63
2019-04-01T22:47:35.317Z,9.52
2019-04-01T22:50:05.122Z,9.55
2019-04-01T22:52:35.255Z,9.46
2019-04-01T22:55:04.777Z,9.48
2019-04-01T22:57:33.227Z,9.51
2019-04-01T23:00:01.925Z,9.39
2019-04-01T23:02:30.411Z,9.43
2019-04-01T23:04:58.900Z,9.46
2019-04-01T23:07:27.364Z,9.36
2019-04-01T23:09:55.792Z,9.34
2019-04-01T23:12:24.270Z,9.31
2019-04-01T23:14:52.679Z,9.25
2019-04-01T23:17:21.174Z,9.25
2019-04-01T23:19:49.630Z,9.33
2019-04-01T23:22:18.052Z,9.37
2019-04-01T23:24:46.685Z,9.38
2019-04-01T23:27:15.512Z,9.35
2019-04-01T23:29:44.001Z,9.30
2019-04-01T23:32:12.574Z,9.25
2019-04-01T23:34:41.133Z,9.24
2019-04-01T23:37:09.673Z,9.29
2019-04-01T23:39:38.044Z,9.36
2019-04-01T23:42:06.883Z,9.25
2019-04-01T23:44:35.449Z,9.30
2019-04-01T23:47:04.013Z,9.38
2019-04-01T23:49:32.517Z,9.40
2019-04-01T23:52:01.017Z,9.26
2019-04-01T23:54:31.065Z,9.14
2019-04-01T23:56:59.775Z,9.06
2019-04-01T23:59:28.195Z,8.96
